Messages - map view · info · telemetry · weather · raw · status · beacons · messages · bulletins · browse · moving · my account
Callsign:
Show:

Loading message packets...

APRS messages are stored for 14 days. It is possible to search using wildcards (*?) after a prefix.

2019-04-21 20:26:25 EDT: DDCSVR>NWS_WARN: 220115z,SVR_STORM,KSC051-165-195
2019-04-21 20:26:25 EDT: DDCSVR>NWS-WARN: 220030z,SVR_STORM,KSC135-195
2019-04-21 20:26:25 EDT: DDCSVR>NWS_WARN: 220030z,SVR_STORM,KSC135-195
2019-04-21 20:26:26 EDT: WSTFDL>BOMWST: South West Fire Danger Rating: LOW-MODERATE
2019-04-21 20:26:26 EDT: WIMFDL>BOMWIM: Wimmera Fire Danger Rating: LOW-MODERATE
2019-04-21 20:26:27 EDT: NCLFDL>BOMNCL: North Central Fire Danger Rating: LOW-MODERATE
2019-04-21 20:26:30 EDT: EGLFDL>BOMEGL: East Gippsland Fire Danger Rating: LOW-MODERATE
2019-04-21 20:26:31 EDT: CNTFDL>BOMCNT: Central Fire Danger Rating: LOW-MODERATE
2019-04-21 20:26:31 EDT: WSGFDL>BOMWSG: West and South Gippsland Fire Danger Rating: LOW-MODERATE
2019-04-21 20:26:31 EDT: NCYFDL>BOMNCY: Northern Country Fire Danger Rating: LOW-MODERATE
2019-04-21 20:26:32 EDT: MALFDH>BOMMAL: Mallee Fire Danger Rating: HIGH
2019-04-21 20:26:51 EDT: VK2GJ-2>VK2GJ-7: Directs=VK2RHR-1 VK2AMW-1 VK2BWI-3
2019-04-21 20:26:57 EDT: KD2KVZ>N2XW-9: hello
2019-04-21 20:26:59 EDT: MTHOOD>N7QME: temps 50.8 100.9 45.4
2019-04-21 20:27:01 EDT: KD2KVZ>N2XW-9: hello
2019-04-21 20:27:05 EDT: DB0TS-10>DB0TS-9: T#001,000,000,000,000,000,00000000,Test
2019-04-21 20:27:25 EDT: GLDFFW>NWS-WARN: 220100z,FLASH_FLOOD,COC063
2019-04-21 20:27:25 EDT: GLDFFW>NWS_WARN: 220100z,FLASH_FLOOD,COC063
2019-04-21 20:27:27 EDT: KM4KAW-9>KM4KAW: SitRep: 11.14072 64.17f
2019-04-21 20:27:53 EDT: N7QME-2>N7QME: dew 53.4 50.4 49.8 57.1 48.1 48.3 51.7 43.8
2019-04-21 20:27:54 EDT: SMSGTE>K2SCH-7: @9738862159 Reply now
2019-04-21 20:27:57 EDT: PSAT>DU6DKL-10: Please Beacon Position
2019-04-21 20:28:13 EDT: N7QME-2>N7QME: 12.41 75.4 37 14
2019-04-21 20:28:15 EDT: WLNK-1>W3ADP-9: Too many login attempts -- try again later.
2019-04-21 20:28:25 EDT: GIDSVR>NWS-WARN: 220115z,SVR_STORM,KSC141-147-163
2019-04-21 20:28:25 EDT: GIDSVR>NWS_WARN: 220115z,SVR_STORM,KSC141-147-163
2019-04-21 20:28:27 EDT: N2RO-3>KD2LBU-7: QNI 73
2019-04-21 20:28:50 EDT: N0JVW>WA0STX: Happy Easter. No worries. I had a small plumbing project anyway.
2019-04-21 20:29:23 EDT: KD2KVZ>W2TIN: hello from galloway nj. testing aprs messaging
2019-04-21 20:29:25 EDT: GIDSVR>NWS-WARN: 220115z,SVR_STORM,KSC141-147-163
2019-04-21 20:29:25 EDT: GIDSVR>NWS_WARN: 220115z,SVR_STORM,KSC141-147-163
2019-04-21 20:29:25 EDT: GIDSVR>NWS-WARN: 220045z,SVR_STORM,NEC019-079-093-163
2019-04-21 20:29:25 EDT: GIDSVR>NWS_WARN: 220045z,SVR_STORM,NEC019-079-093-163
2019-04-21 20:29:49 EDT: BG2AZY>WHO-15: BG2AZY
2019-04-21 20:29:50 EDT: WHO-15>BG2AZY: BG2AZY was not found!
2019-04-21 20:29:54 EDT: SMSGTE>K2SCH-7: @9738862159 Reply now
2019-04-21 20:30:24 EDT: KC2YGH-10>KC2YGH-I: helo
2019-04-21 20:30:25 EDT: GIDSVR>NWS-WARN: 220115z,SVR_STORM,KSC141-147-163
2019-04-21 20:30:25 EDT: GIDSVR>NWS_WARN: 220115z,SVR_STORM,KSC141-147-163
2019-04-21 20:30:50 EDT: WHO-15>BG2AZY: BG2AZY was not found!
2019-04-21 20:30:55 EDT: VE7JMR-9>VE7NV-8: Hello from Delta :-)
2019-04-21 20:30:59 EDT: VE7GDH>VE7NV-8: tip installed and have used it, but just to make up a cable going
2019-04-21 20:31:25 EDT: GIDSVR>NWS-WARN: 220115z,SVR_STORM,KSC141-147-163
2019-04-21 20:31:25 EDT: GIDSVR>NWS_WARN: 220115z,SVR_STORM,KSC141-147-163
2019-04-21 20:31:25 EDT: DDCSVR>NWS-WARN: 220115z,SVR_STORM,KSC051-165-195
2019-04-21 20:31:25 EDT: DDCSVR>NWS_WARN: 220115z,SVR_STORM,KSC051-165-195
2019-04-21 20:31:37 EDT: CHCSTW>BOM_WARN: 220140z,TSTORM,QLD_PW011
2019-04-21 20:31:37 EDT: CHCSTW>BOMCHC: Severe Thunderstorm Warning for Flash Flooding for Channel
2019-04-21 20:31:37 EDT: CHCSTW>BOMCHC: Country forecast district
2019-04-21 20:31:41 EDT: VE7GDH>VE7NV-8: tip installed and have used it, but just to make up a cable going
< previous
FAQ · Blog · Discussion group · Linking to aprs.fi · AIS sites · Service status · Database statistics · Advertising on aprs.fi · Technical details · API · Change log · Planned changes · Credits and thanks · Terms Of Service · iPhone/iPad APRS